Tallahassee, FL (32301)

7:07 AM EST on February 12, 2016 (GMT -0500)
Rickards High School WeatherSTEM | | Change Station
CLOSE
Current Station
Personal Weather Station
Location: Tallahassee, FL
Elevation: 138 ft
Nearby Weather Stations

Elev 138 ft 30.41 °N, 84.26 °W | Updated 8 minutes ago

Fog
Fog
54.2 °F
Feels Like 54.2 °F
N
0.0
Wind Variable Wind from SW
Gusts 0.0 mph

Today
High -- | Low -- °F
--% Chance of Precip.
Yesterday
High -- | Low -- °F
Precip. -- in
Pressure 30.20 in
Visibility 0.8 miles
Clouds Scattered Clouds 200 ft
Overcast 1800 ft
Dew Point 54 °F
Humidity 98%
Rainfall 0.00 in
Snow Depth Not available.
7:20 AM 6:22 PM
Waxing Crescent, 20% visible
METAR KTLH 121153Z 00000KT 3/4SM BR SCT002 OVC018 07/06 A3020 RMK AO2 SLP226 T00720061 10100 20067 51012
Pressure 30.20 in
Visibility 0.8 miles
Clouds Scattered Clouds 200 ft
Overcast 1800 ft
Dew Point 54 °F
Humidity 98%
Rainfall 0.00 in
Snow Depth Not available.
7:20 AM 6:22 PM
Waxing Crescent, 20% visible
METAR KTLH 121153Z 00000KT 3/4SM BR SCT002 OVC018 07/06 A3020 RMK AO2 SLP226 T00720061 10100 20067 51012

10-Day Weather Forecast

Almanac

Astronomy

Feb. 12, 2016 Rise Set
Actual Time
Civil Twilight
Nautical Twilight
Astronomical Twilight
Moon
Length of Visible Light
Length of Day
Tomorrow will be .
, % of the Moon is Illuminated

Today's Extremes

State Highs State Lows

Community

WunderPhotos

Upload Photos

1,892,294 photos uploaded!

WunderBlog® & News

Nearby

Air Quality

  Air Quality AQ Index Pollutant
Not available.

Snow Depth

Station Depth Elevation

Earthquake Activity

City Distance Mag. Time & Date
Minimum magnitude displayed is 2.5.

Coastal Water Temperatures

Place Temperature

Stations

Nearby Weather Stations

Station Location Temp. Windchill Dew Point Humidity Wind Precip. Elev Updated Type
                   

Watches & Warnings

There are currently no watches in effect.